sensor_id;sensor_type;location;lat;lon;timestamp;temperature;humidity
64620;DHT22;51029;51.058;13.826;2022-12-18T00:01:57;-7.70;99.90
64620;DHT22;51029;51.058;13.826;2022-12-18T00:04:25;-7.70;99.90
64620;DHT22;51029;51.058;13.826;2022-12-18T00:06:52;-7.70;99.90
64620;DHT22;51029;51.058;13.826;2022-12-18T00:09:18;-7.70;99.90
64620;DHT22;51029;51.058;13.826;2022-12-18T00:11:44;-7.80;99.90
64620;DHT22;51029;51.058;13.826;2022-12-18T00:14:11;-7.70;99.90
64620;DHT22;51029;51.058;13.826;2022-12-18T00:16:37;-7.70;99.90
64620;DHT22;51029;51.058;13.826;2022-12-18T00:19:04;-7.80;99.90
64620;DHT22;51029;51.058;13.826;2022-12-18T00:21:31;-7.90;99.90
64620;DHT22;51029;51.058;13.826;2022-12-18T00:23:57;-7.90;99.90
64620;DHT22;51029;51.058;13.826;2022-12-18T00:26:25;-7.90;99.90
64620;DHT22;51029;51.058;13.826;2022-12-18T00:28:52;-7.90;99.90
64620;DHT22;51029;51.058;13.826;2022-12-18T00:31:23;-8.00;99.90
64620;DHT22;51029;51.058;13.826;2022-12-18T00:33:48;-8.00;99.90
64620;DHT22;51029;51.058;13.826;2022-12-18T00:36:19;-7.90;99.90
64620;DHT22;51029;51.058;13.826;2022-12-18T00:38:45;-7.90;99.90
64620;DHT22;51029;51.058;13.826;2022-12-18T00:41:13;-8.00;99.90
64620;DHT22;51029;51.058;13.826;2022-12-18T00:43:40;-8.00;99.90
64620;DHT22;51029;51.058;13.826;2022-12-18T00:46:06;-8.00;99.90
64620;DHT22;51029;51.058;13.826;2022-12-18T00:48:32;-8.00;99.90
64620;DHT22;51029;51.058;13.826;2022-12-18T00:50:58;-8.00;99.90
64620;DHT22;51029;51.058;13.826;2022-12-18T00:53:23;-8.00;99.90
64620;DHT22;51029;51.058;13.826;2022-12-18T00:55:49;-8.00;99.90
64620;DHT22;51029;51.058;13.826;2022-12-18T00:58:16;-8.00;99.90
64620;DHT22;51029;51.058;13.826;2022-12-18T01:00:42;-8.00;99.90
64620;DHT22;51029;51.058;13.826;2022-12-18T01:03:07;-8.10;99.90
64620;DHT22;51029;51.058;13.826;2022-12-18T01:05:33;-8.00;99.90
64620;DHT22;51029;51.058;13.826;2022-12-18T01:07:59;-8.10;99.90
64620;DHT22;51029;51.058;13.826;2022-12-18T01:10:25;-8.10;99.90
64620;DHT22;51029;51.058;13.826;2022-12-18T01:12:51;-8.10;99.90
64620;DHT22;51029;51.058;13.826;2022-12-18T01:15:17;-8.10;99.90
64620;DHT22;51029;51.058;13.826;2022-12-18T01:17:43;-8.20;99.90
64620;DHT22;51029;51.058;13.826;2022-12-18T01:20:10;-8.20;99.90
64620;DHT22;51029;51.058;13.826;2022-12-18T01:22:37;-8.30;99.90
64620;DHT22;51029;51.058;13.826;2022-12-18T01:25:03;-8.30;99.90
64620;DHT22;51029;51.058;13.826;2022-12-18T01:27:29;-8.30;99.90
64620;DHT22;51029;51.058;13.826;2022-12-18T01:29:55;-8.30;99.90
64620;DHT22;51029;51.058;13.826;2022-12-18T01:32:21;-8.30;99.90
64620;DHT22;51029;51.058;13.826;2022-12-18T01:34:47;-8.30;99.90
64620;DHT22;51029;51.058;13.826;2022-12-18T01:37:13;-8.30;99.90
64620;DHT22;51029;51.058;13.826;2022-12-18T01:39:38;-8.30;99.90
64620;DHT22;51029;51.058;13.826;2022-12-18T01:42:11;-8.40;99.90
64620;DHT22;51029;51.058;13.826;2022-12-18T01:47:41;-8.50;99.90
64620;DHT22;51029;51.058;13.826;2022-12-18T01:52:36;-8.40;99.90
64620;DHT22;51029;51.058;13.826;2022-12-18T01:55:07;-8.40;99.90
64620;DHT22;51029;51.058;13.826;2022-12-18T01:57:33;-8.40;99.90
64620;DHT22;51029;51.058;13.826;2022-12-18T02:00:09;-8.40;99.90
64620;DHT22;51029;51.058;13.826;2022-12-18T02:02:35;-8.50;99.90
64620;DHT22;51029;51.058;13.826;2022-12-18T02:05:02;-8.40;99.90
64620;DHT22;51029;51.058;13.826;2022-12-18T02:07:35;-8.50;99.90
64620;DHT22;51029;51.058;13.826;2022-12-18T02:10:05;-8.50;99.90
64620;DHT22;51029;51.058;13.826;2022-12-18T02:12:45;-8.50;99.90
64620;DHT22;51029;51.058;13.826;2022-12-18T02:15:23;-8.50;99.90
64620;DHT22;51029;51.058;13.826;2022-12-18T02:17:56;-8.60;99.90
64620;DHT22;51029;51.058;13.826;2022-12-18T02:20:35;-8.50;99.90
64620;DHT22;51029;51.058;13.826;2022-12-18T02:29:00;-8.80;99.90
64620;DHT22;51029;51.058;13.826;2022-12-18T02:31:31;-8.70;99.90
64620;DHT22;51029;51.058;13.826;2022-12-18T02:34:03;-8.60;99.90
64620;DHT22;51029;51.058;13.826;2022-12-18T02:36:31;-8.70;99.90
64620;DHT22;51029;51.058;13.826;2022-12-18T02:38:58;-8.70;99.90
64620;DHT22;51029;51.058;13.826;2022-12-18T02:41:25;-8.80;99.90
64620;DHT22;51029;51.058;13.826;2022-12-18T02:43:57;-8.80;99.90
64620;DHT22;51029;51.058;13.826;2022-12-18T02:46:32;-8.70;99.90
64620;DHT22;51029;51.058;13.826;2022-12-18T02:49:26;-8.70;99.90
64620;DHT22;51029;51.058;13.826;2022-12-18T02:51:56;-8.70;99.90
64620;DHT22;51029;51.058;13.826;2022-12-18T02:56:54;-8.80;99.90
64620;DHT22;51029;51.058;13.826;2022-12-18T02:59:31;-8.80;99.90
64620;DHT22;51029;51.058;13.826;2022-12-18T03:04:34;-8.70;99.90
64620;DHT22;51029;51.058;13.826;2022-12-18T03:07:09;-8.70;99.90
64620;DHT22;51029;51.058;13.826;2022-12-18T03:09:39;-8.70;99.90
64620;DHT22;51029;51.058;13.826;2022-12-18T03:12:24;-8.80;99.90
64620;DHT22;51029;51.058;13.826;2022-12-18T03:15:10;-8.70;99.90
64620;DHT22;51029;51.058;13.826;2022-12-18T03:17:40;-8.70;99.90
64620;DHT22;51029;51.058;13.826;2022-12-18T03:20:12;-8.70;99.90
64620;DHT22;51029;51.058;13.826;2022-12-18T03:22:38;-8.60;99.90
64620;DHT22;51029;51.058;13.826;2022-12-18T03:25:08;-8.60;99.90
64620;DHT22;51029;51.058;13.826;2022-12-18T03:27:39;-8.60;99.90
64620;DHT22;51029;51.058;13.826;2022-12-18T03:30:09;-8.60;99.90
64620;DHT22;51029;51.058;13.826;2022-12-18T03:32:56;-8.60;99.90
64620;DHT22;51029;51.058;13.826;2022-12-18T03:35:32;-8.60;99.90
64620;DHT22;51029;51.058;13.826;2022-12-18T03:37:59;-8.70;99.90
64620;DHT22;51029;51.058;13.826;2022-12-18T03:40:59;-8.70;99.90
64620;DHT22;51029;51.058;13.826;2022-12-18T03:43:55;-8.70;99.90
64620;DHT22;51029;51.058;13.826;2022-12-18T03:46:30;-8.70;99.90
64620;DHT22;51029;51.058;13.826;2022-12-18T03:49:23;-8.80;99.90
64620;DHT22;51029;51.058;13.826;2022-12-18T03:52:04;-8.80;99.90
64620;DHT22;51029;51.058;13.826;2022-12-18T03:54:31;-8.80;99.90
64620;DHT22;51029;51.058;13.826;2022-12-18T03:57:05;-8.70;99.90
64620;DHT22;51029;51.058;13.826;2022-12-18T03:59:33;-8.70;99.90
64620;DHT22;51029;51.058;13.826;2022-12-18T04:01:59;-8.80;99.90
64620;DHT22;51029;51.058;13.826;2022-12-18T04:04:27;-8.70;99.90
64620;DHT22;51029;51.058;13.826;2022-12-18T04:06:54;-8.70;99.90
64620;DHT22;51029;51.058;13.826;2022-12-18T04:09:21;-8.70;99.90
64620;DHT22;51029;51.058;13.826;2022-12-18T04:11:47;-8.70;99.90
64620;DHT22;51029;51.058;13.826;2022-12-18T04:14:13;-8.70;99.90
64620;DHT22;51029;51.058;13.826;2022-12-18T04:16:38;-8.70;99.90
64620;DHT22;51029;51.058;13.826;2022-12-18T04:19:04;-8.70;99.90
64620;DHT22;51029;51.058;13.826;2022-12-18T04:21:30;-8.70;99.90
64620;DHT22;51029;51.058;13.826;2022-12-18T04:23:56;-8.70;99.90
64620;DHT22;51029;51.058;13.826;2022-12-18T04:26:22;-8.70;99.90
64620;DHT22;51029;51.058;13.826;2022-12-18T04:28:47;-8.70;99.90
64620;DHT22;51029;51.058;13.826;2022-12-18T04:31:13;-8.70;99.90
64620;DHT22;51029;51.058;13.826;2022-12-18T04:33:38;-8.70;99.90
64620;DHT22;51029;51.058;13.826;2022-12-18T04:36:05;-8.70;99.90
64620;DHT22;51029;51.058;13.826;2022-12-18T04:38:30;-8.70;99.90
64620;DHT22;51029;51.058;13.826;2022-12-18T04:40:56;-8.70;99.90
64620;DHT22;51029;51.058;13.826;2022-12-18T04:43:21;-8.60;99.90
64620;DHT22;51029;51.058;13.826;2022-12-18T04:45:47;-8.70;99.90
64620;DHT22;51029;51.058;13.826;2022-12-18T04:48:13;-8.70;99.90
64620;DHT22;51029;51.058;13.826;2022-12-18T04:50:38;-8.70;99.90
64620;DHT22;51029;51.058;13.826;2022-12-18T04:53:04;-8.70;99.90
64620;DHT22;51029;51.058;13.826;2022-12-18T04:55:29;-8.60;99.90
64620;DHT22;51029;51.058;13.826;2022-12-18T04:57:55;-8.60;99.90
64620;DHT22;51029;51.058;13.826;2022-12-18T05:00:21;-8.60;99.90
64620;DHT22;51029;51.058;13.826;2022-12-18T05:02:47;-8.50;99.90
64620;DHT22;51029;51.058;13.826;2022-12-18T05:05:13;-8.60;99.90
64620;DHT22;51029;51.058;13.826;2022-12-18T05:07:39;-8.60;99.90
64620;DHT22;51029;51.058;13.826;2022-12-18T05:10:06;-8.60;99.90
64620;DHT22;51029;51.058;13.826;2022-12-18T05:12:32;-8.70;99.90
64620;DHT22;51029;51.058;13.826;2022-12-18T05:14:58;-8.70;99.90
64620;DHT22;51029;51.058;13.826;2022-12-18T05:17:23;-8.70;99.90
64620;DHT22;51029;51.058;13.826;2022-12-18T05:19:49;-8.70;99.90
64620;DHT22;51029;51.058;13.826;2022-12-18T05:22:15;-8.70;99.90
64620;DHT22;51029;51.058;13.826;2022-12-18T05:24:41;-8.90;99.90
64620;DHT22;51029;51.058;13.826;2022-12-18T05:27:06;-9.10;99.90
64620;DHT22;51029;51.058;13.826;2022-12-18T05:29:32;-9.10;99.90
64620;DHT22;51029;51.058;13.826;2022-12-18T05:31:57;-9.10;99.90
64620;DHT22;51029;51.058;13.826;2022-12-18T05:34:23;-9.00;99.90
64620;DHT22;51029;51.058;13.826;2022-12-18T05:36:48;-9.00;99.90
64620;DHT22;51029;51.058;13.826;2022-12-18T05:39:14;-9.00;99.90
64620;DHT22;51029;51.058;13.826;2022-12-18T05:41:39;-8.90;99.90
64620;DHT22;51029;51.058;13.826;2022-12-18T05:44:05;-8.80;99.90
64620;DHT22;51029;51.058;13.826;2022-12-18T05:46:31;-8.70;99.90
64620;DHT22;51029;51.058;13.826;2022-12-18T05:48:59;-8.70;99.90
64620;DHT22;51029;51.058;13.826;2022-12-18T05:51:25;-8.70;99.90
64620;DHT22;51029;51.058;13.826;2022-12-18T05:53:51;-8.70;99.90
64620;DHT22;51029;51.058;13.826;2022-12-18T05:56:19;-8.60;99.90
64620;DHT22;51029;51.058;13.826;2022-12-18T05:58:46;-8.60;99.90
64620;DHT22;51029;51.058;13.826;2022-12-18T06:01:14;-8.60;99.90
64620;DHT22;51029;51.058;13.826;2022-12-18T06:03:40;-8.50;99.90
64620;DHT22;51029;51.058;13.826;2022-12-18T06:06:26;-8.50;99.90
64620;DHT22;51029;51.058;13.826;2022-12-18T06:08:53;-8.40;99.90
64620;DHT22;51029;51.058;13.826;2022-12-18T06:11:24;-8.40;99.90
64620;DHT22;51029;51.058;13.826;2022-12-18T06:13:51;-8.40;99.90
64620;DHT22;51029;51.058;13.826;2022-12-18T06:16:17;-8.40;99.90
64620;DHT22;51029;51.058;13.826;2022-12-18T06:18:42;-8.40;99.90
64620;DHT22;51029;51.058;13.826;2022-12-18T06:21:08;-8.40;99.90
64620;DHT22;51029;51.058;13.826;2022-12-18T06:23:33;-8.40;99.90
64620;DHT22;51029;51.058;13.826;2022-12-18T06:26:07;-8.40;99.90
64620;DHT22;51029;51.058;13.826;2022-12-18T06:28:32;-8.40;99.90
64620;DHT22;51029;51.058;13.826;2022-12-18T06:30:58;-8.40;99.90
64620;DHT22;51029;51.058;13.826;2022-12-18T06:33:26;-8.50;99.90
64620;DHT22;51029;51.058;13.826;2022-12-18T06:35:53;-8.50;99.90
64620;DHT22;51029;51.058;13.826;2022-12-18T06:38:19;-8.50;99.90
64620;DHT22;51029;51.058;13.826;2022-12-18T06:40:44;-8.50;99.90
64620;DHT22;51029;51.058;13.826;2022-12-18T06:43:10;-8.50;99.90
64620;DHT22;51029;51.058;13.826;2022-12-18T06:45:36;-8.50;99.90
64620;DHT22;51029;51.058;13.826;2022-12-18T06:48:01;-8.50;99.90
64620;DHT22;51029;51.058;13.826;2022-12-18T06:50:27;-8.70;99.90
64620;DHT22;51029;51.058;13.826;2022-12-18T06:52:52;-8.80;99.90
64620;DHT22;51029;51.058;13.826;2022-12-18T06:55:18;-9.00;99.90
64620;DHT22;51029;51.058;13.826;2022-12-18T06:57:43;-8.90;99.90
64620;DHT22;51029;51.058;13.826;2022-12-18T07:00:10;-9.00;99.90
64620;DHT22;51029;51.058;13.826;2022-12-18T07:02:36;-8.90;99.90
64620;DHT22;51029;51.058;13.826;2022-12-18T07:05:02;-8.80;99.90
64620;DHT22;51029;51.058;13.826;2022-12-18T07:07:27;-8.80;99.90
64620;DHT22;51029;51.058;13.826;2022-12-18T07:09:53;-8.70;99.90
64620;DHT22;51029;51.058;13.826;2022-12-18T07:12:18;-8.60;99.90
64620;DHT22;51029;51.058;13.826;2022-12-18T07:14:44;-8.60;99.90
64620;DHT22;51029;51.058;13.826;2022-12-18T07:17:09;-8.50;99.90
64620;DHT22;51029;51.058;13.826;2022-12-18T07:19:35;-8.50;99.90
64620;DHT22;51029;51.058;13.826;2022-12-18T07:22:01;-8.40;99.90
64620;DHT22;51029;51.058;13.826;2022-12-18T07:24:26;-8.40;99.90
64620;DHT22;51029;51.058;13.826;2022-12-18T07:26:52;-8.40;99.90
64620;DHT22;51029;51.058;13.826;2022-12-18T07:29:17;-8.30;99.90
64620;DHT22;51029;51.058;13.826;2022-12-18T07:31:43;-8.30;99.90
64620;DHT22;51029;51.058;13.826;2022-12-18T07:34:15;-8.20;99.90
64620;DHT22;51029;51.058;13.826;2022-12-18T07:36:41;-8.10;99.90
64620;DHT22;51029;51.058;13.826;2022-12-18T07:39:07;-8.10;99.90
64620;DHT22;51029;51.058;13.826;2022-12-18T07:41:33;-8.00;99.90
64620;DHT22;51029;51.058;13.826;2022-12-18T07:43:58;-7.90;99.90
64620;DHT22;51029;51.058;13.826;2022-12-18T07:46:24;-7.90;99.90
64620;DHT22;51029;51.058;13.826;2022-12-18T07:48:50;-7.80;99.90
64620;DHT22;51029;51.058;13.826;2022-12-18T07:51:16;-7.80;99.90
64620;DHT22;51029;51.058;13.826;2022-12-18T07:53:41;-7.70;99.90
64620;DHT22;51029;51.058;13.826;2022-12-18T07:56:10;-7.60;99.90
64620;DHT22;51029;51.058;13.826;2022-12-18T07:58:37;-7.60;99.90
64620;DHT22;51029;51.058;13.826;2022-12-18T08:01:07;-7.50;99.90
64620;DHT22;51029;51.058;13.826;2022-12-18T08:03:33;-7.40;99.90
64620;DHT22;51029;51.058;13.826;2022-12-18T08:06:04;-7.40;99.90
64620;DHT22;51029;51.058;13.826;2022-12-18T08:08:30;-7.30;99.90
64620;DHT22;51029;51.058;13.826;2022-12-18T08:10:56;-7.20;99.90
64620;DHT22;51029;51.058;13.826;2022-12-18T08:13:22;-7.10;99.90
64620;DHT22;51029;51.058;13.826;2022-12-18T08:16:03;-7.00;99.90
64620;DHT22;51029;51.058;13.826;2022-12-18T08:18:29;-7.00;99.90
64620;DHT22;51029;51.058;13.826;2022-12-18T08:20:57;-6.90;99.90
64620;DHT22;51029;51.058;13.826;2022-12-18T08:23:22;-6.80;99.90
64620;DHT22;51029;51.058;13.826;2022-12-18T08:25:48;-6.80;99.90
64620;DHT22;51029;51.058;13.826;2022-12-18T08:28:14;-6.70;99.90
64620;DHT22;51029;51.058;13.826;2022-12-18T08:30:42;-6.60;99.90
64620;DHT22;51029;51.058;13.826;2022-12-18T08:33:07;-6.50;99.90
64620;DHT22;51029;51.058;13.826;2022-12-18T08:35:36;-6.40;99.90
64620;DHT22;51029;51.058;13.826;2022-12-18T08:38:02;-6.40;99.90
64620;DHT22;51029;51.058;13.826;2022-12-18T08:40:28;-6.20;99.90
64620;DHT22;51029;51.058;13.826;2022-12-18T08:42:53;-6.10;99.90
64620;DHT22;51029;51.058;13.826;2022-12-18T08:45:38;-6.00;99.90
64620;DHT22;51029;51.058;13.826;2022-12-18T08:48:03;-5.80;99.90
64620;DHT22;51029;51.058;13.826;2022-12-18T08:50:29;-5.60;99.90
64620;DHT22;51029;51.058;13.826;2022-12-18T08:52:54;-5.50;99.90
64620;DHT22;51029;51.058;13.826;2022-12-18T08:55:20;-5.20;99.90
64620;DHT22;51029;51.058;13.826;2022-12-18T08:57:48;-5.20;99.90
64620;DHT22;51029;51.058;13.826;2022-12-18T09:00:15;-5.10;99.90
64620;DHT22;51029;51.058;13.826;2022-12-18T09:02:40;-4.90;99.90
64620;DHT22;51029;51.058;13.826;2022-12-18T09:05:06;-4.70;99.90
64620;DHT22;51029;51.058;13.826;2022-12-18T09:07:32;-4.50;99.90
64620;DHT22;51029;51.058;13.826;2022-12-18T09:09:57;-4.10;99.90
64620;DHT22;51029;51.058;13.826;2022-12-18T09:12:23;-3.60;99.90
64620;DHT22;51029;51.058;13.826;2022-12-18T09:14:48;-3.10;99.90
64620;DHT22;51029;51.058;13.826;2022-12-18T09:17:14;-2.80;99.90
64620;DHT22;51029;51.058;13.826;2022-12-18T09:19:40;-2.40;99.90
64620;DHT22;51029;51.058;13.826;2022-12-18T09:22:05;-2.00;99.90
64620;DHT22;51029;51.058;13.826;2022-12-18T09:24:31;-1.30;99.90
64620;DHT22;51029;51.058;13.826;2022-12-18T09:26:56;-0.70;99.90
64620;DHT22;51029;51.058;13.826;2022-12-18T09:29:22;-0.10;99.90
64620;DHT22;51029;51.058;13.826;2022-12-18T09:31:47;0.50;99.90
64620;DHT22;51029;51.058;13.826;2022-12-18T09:34:14;0.90;98.70
64620;DHT22;51029;51.058;13.826;2022-12-18T09:36:40;1.40;98.20
64620;DHT22;51029;51.058;13.826;2022-12-18T09:39:06;2.00;97.40
64620;DHT22;51029;51.058;13.826;2022-12-18T09:41:51;2.30;93.50
64620;DHT22;51029;51.058;13.826;2022-12-18T09:47:18;2.10;92.20
64620;DHT22;51029;51.058;13.826;2022-12-18T09:49:46;2.00;92.10
64620;DHT22;51029;51.058;13.826;2022-12-18T09:52:30;2.00;91.40
64620;DHT22;51029;51.058;13.826;2022-12-18T09:55:08;1.80;91.70
64620;DHT22;51029;51.058;13.826;2022-12-18T09:57:39;1.90;92.00
64620;DHT22;51029;51.058;13.826;2022-12-18T10:00:18;2.40;91.60
64620;DHT22;51029;51.058;13.826;2022-12-18T10:02:44;3.20;89.50
64620;DHT22;51029;51.058;13.826;2022-12-18T10:06:01;3.80;84.10
64620;DHT22;51029;51.058;13.826;2022-12-18T10:10:51;4.60;78.90
64620;DHT22;51029;51.058;13.826;2022-12-18T10:13:33;5.50;75.50
64620;DHT22;51029;51.058;13.826;2022-12-18T10:21:12;8.40;63.50
64620;DHT22;51029;51.058;13.826;2022-12-18T10:26:23;9.70;58.90
64620;DHT22;51029;51.058;13.826;2022-12-18T10:28:49;9.90;57.10
64620;DHT22;51029;51.058;13.826;2022-12-18T10:31:18;10.80;54.40
64620;DHT22;51029;51.058;13.826;2022-12-18T10:33:45;11.50;52.10
64620;DHT22;51029;51.058;13.826;2022-12-18T10:36:11;12.00;50.00
64620;DHT22;51029;51.058;13.826;2022-12-18T10:38:37;12.30;48.90
64620;DHT22;51029;51.058;13.826;2022-12-18T10:41:24;12.80;48.20
64620;DHT22;51029;51.058;13.826;2022-12-18T10:44:12;13.10;46.50
64620;DHT22;51029;51.058;13.826;2022-12-18T10:46:40;13.40;45.40
64620;DHT22;51029;51.058;13.826;2022-12-18T10:49:28;13.70;44.30
64620;DHT22;51029;51.058;13.826;2022-12-18T10:52:23;14.20;43.60
64620;DHT22;51029;51.058;13.826;2022-12-18T10:54:59;14.70;42.90
64620;DHT22;51029;51.058;13.826;2022-12-18T10:57:36;15.10;41.00
64620;DHT22;51029;51.058;13.826;2022-12-18T11:00:28;14.90;40.20
64620;DHT22;51029;51.058;13.826;2022-12-18T11:02:54;12.10;41.30
64620;DHT22;51029;51.058;13.826;2022-12-18T11:05:32;9.80;45.60
64620;DHT22;51029;51.058;13.826;2022-12-18T11:07:59;8.10;49.00
64620;DHT22;51029;51.058;13.826;2022-12-18T11:10:32;7.00;51.60
64620;DHT22;51029;51.058;13.826;2022-12-18T11:13:30;6.10;53.90
64620;DHT22;51029;51.058;13.826;2022-12-18T11:15:57;6.10;56.00
64620;DHT22;51029;51.058;13.826;2022-12-18T11:18:29;6.70;55.80
64620;DHT22;51029;51.058;13.826;2022-12-18T11:21:08;7.10;55.20
64620;DHT22;51029;51.058;13.826;2022-12-18T11:23:35;8.90;52.50
64620;DHT22;51029;51.058;13.826;2022-12-18T11:26:03;9.50;50.60
64620;DHT22;51029;51.058;13.826;2022-12-18T11:28:45;8.40;50.30
64620;DHT22;51029;51.058;13.826;2022-12-18T11:31:21;7.50;51.80
64620;DHT22;51029;51.058;13.826;2022-12-18T11:36:29;5.70;55.20
64620;DHT22;51029;51.058;13.826;2022-12-18T11:39:00;5.80;56.70
64620;DHT22;51029;51.058;13.826;2022-12-18T11:41:34;6.60;56.00
64620;DHT22;51029;51.058;13.826;2022-12-18T11:47:19;6.50;54.90
64620;DHT22;51029;51.058;13.826;2022-12-18T11:49:49;6.90;54.90
64620;DHT22;51029;51.058;13.826;2022-12-18T11:52:25;6.70;54.00
64620;DHT22;51029;51.058;13.826;2022-12-18T11:54:55;6.00;54.70
64620;DHT22;51029;51.058;13.826;2022-12-18T11:57:49;5.80;56.00
64620;DHT22;51029;51.058;13.826;2022-12-18T12:00:18;5.20;56.20
64620;DHT22;51029;51.058;13.826;2022-12-18T12:03:03;5.20;57.80
64620;DHT22;51029;51.058;13.826;2022-12-18T12:06:03;6.60;56.80
64620;DHT22;51029;51.058;13.826;2022-12-18T12:14:21;4.10;57.80
64620;DHT22;51029;51.058;13.826;2022-12-18T12:16:58;3.40;60.10
64620;DHT22;51029;51.058;13.826;2022-12-18T12:20:07;2.70;62.70
64620;DHT22;51029;51.058;13.826;2022-12-18T12:22:58;1.90;66.00
64620;DHT22;51029;51.058;13.826;2022-12-18T12:25:46;1.70;68.90
64620;DHT22;51029;51.058;13.826;2022-12-18T12:31:03;6.90;59.40
64620;DHT22;51029;51.058;13.826;2022-12-18T12:39:17;8.80;49.20
64620;DHT22;51029;51.058;13.826;2022-12-18T12:41:45;8.70;49.70
64620;DHT22;51029;51.058;13.826;2022-12-18T12:44:44;7.40;49.30
64620;DHT22;51029;51.058;13.826;2022-12-18T12:47:19;5.10;52.90
64620;DHT22;51029;51.058;13.826;2022-12-18T12:49:47;3.60;56.70
64620;DHT22;51029;51.058;13.826;2022-12-18T12:52:37;2.80;60.60
64620;DHT22;51029;51.058;13.826;2022-12-18T12:55:13;2.10;64.30
64620;DHT22;51029;51.058;13.826;2022-12-18T12:58:19;1.70;66.60
64620;DHT22;51029;51.058;13.826;2022-12-18T13:01:15;1.70;68.00
64620;DHT22;51029;51.058;13.826;2022-12-18T13:03:51;1.40;68.70
64620;DHT22;51029;51.058;13.826;2022-12-18T13:09:00;0.90;71.20
64620;DHT22;51029;51.058;13.826;2022-12-18T13:11:46;0.80;72.10
64620;DHT22;51029;51.058;13.826;2022-12-18T13:14:33;0.70;73.10
64620;DHT22;51029;51.058;13.826;2022-12-18T13:17:29;0.50;73.50
64620;DHT22;51029;51.058;13.826;2022-12-18T13:20:11;0.30;74.70
64620;DHT22;51029;51.058;13.826;2022-12-18T13:22:42;0.30;75.90
64620;DHT22;51029;51.058;13.826;2022-12-18T13:25:37;0.20;76.60
64620;DHT22;51029;51.058;13.826;2022-12-18T13:28:16;0.10;77.10
64620;DHT22;51029;51.058;13.826;2022-12-18T13:30:55;0.00;77.80
64620;DHT22;51029;51.058;13.826;2022-12-18T13:36:28;-0.20;80.00
64620;DHT22;51029;51.058;13.826;2022-12-18T13:41:48;-0.60;82.90
64620;DHT22;51029;51.058;13.826;2022-12-18T13:44:34;-0.60;84.10
64620;DHT22;51029;51.058;13.826;2022-12-18T13:47:02;-0.70;85.80
64620;DHT22;51029;51.058;13.826;2022-12-18T13:52:03;-0.70;87.90
64620;DHT22;51029;51.058;13.826;2022-12-18T13:54:40;-0.60;87.50
64620;DHT22;51029;51.058;13.826;2022-12-18T13:57:35;-0.60;87.70
64620;DHT22;51029;51.058;13.826;2022-12-18T14:02:47;-0.70;87.30
64620;DHT22;51029;51.058;13.826;2022-12-18T14:05:30;-0.80;88.30
64620;DHT22;51029;51.058;13.826;2022-12-18T14:08:05;-1.00;89.50
64620;DHT22;51029;51.058;13.826;2022-12-18T14:10:31;-1.20;90.40
64620;DHT22;51029;51.058;13.826;2022-12-18T14:12:57;-1.40;91.20
64620;DHT22;51029;51.058;13.826;2022-12-18T14:15:33;-1.60;92.00
64620;DHT22;51029;51.058;13.826;2022-12-18T14:18:02;-1.60;93.00
64620;DHT22;51029;51.058;13.826;2022-12-18T14:20:32;-1.70;93.50
64620;DHT22;51029;51.058;13.826;2022-12-18T14:22:58;-1.70;94.40
64620;DHT22;51029;51.058;13.826;2022-12-18T14:25:27;-1.70;94.20
64620;DHT22;51029;51.058;13.826;2022-12-18T14:30:41;-2.00;94.80
64620;DHT22;51029;51.058;13.826;2022-12-18T14:33:12;-2.10;95.90
64620;DHT22;51029;51.058;13.826;2022-12-18T14:35:53;-2.20;96.20
64620;DHT22;51029;51.058;13.826;2022-12-18T14:38:31;-2.30;97.20
64620;DHT22;51029;51.058;13.826;2022-12-18T14:41:03;-2.60;97.60
64620;DHT22;51029;51.058;13.826;2022-12-18T14:43:34;-2.70;98.50
64620;DHT22;51029;51.058;13.826;2022-12-18T14:46:01;-2.80;99.20
64620;DHT22;51029;51.058;13.826;2022-12-18T14:48:37;-2.90;99.90
64620;DHT22;51029;51.058;13.826;2022-12-18T14:51:18;-3.00;99.90
64620;DHT22;51029;51.058;13.826;2022-12-18T14:53:47;-3.10;99.90
64620;DHT22;51029;51.058;13.826;2022-12-18T14:56:22;-3.10;99.90
64620;DHT22;51029;51.058;13.826;2022-12-18T14:58:54;-3.20;99.90
64620;DHT22;51029;51.058;13.826;2022-12-18T15:01:33;-3.30;99.90
64620;DHT22;51029;51.058;13.826;2022-12-18T15:04:01;-3.40;99.90
64620;DHT22;51029;51.058;13.826;2022-12-18T15:06:38;-3.50;99.90
64620;DHT22;51029;51.058;13.826;2022-12-18T15:09:25;-3.50;99.90
64620;DHT22;51029;51.058;13.826;2022-12-18T15:11:59;-3.60;99.90
64620;DHT22;51029;51.058;13.826;2022-12-18T15:17:06;-3.70;99.90
64620;DHT22;51029;51.058;13.826;2022-12-18T15:19:38;-3.70;99.90
64620;DHT22;51029;51.058;13.826;2022-12-18T15:22:47;-3.80;99.90
64620;DHT22;51029;51.058;13.826;2022-12-18T15:25:34;-3.80;99.90
64620;DHT22;51029;51.058;13.826;2022-12-18T15:28:02;-3.90;99.90
64620;DHT22;51029;51.058;13.826;2022-12-18T15:30:28;-4.00;99.90
64620;DHT22;51029;51.058;13.826;2022-12-18T15:33:17;-4.00;99.90
64620;DHT22;51029;51.058;13.826;2022-12-18T15:35:59;-4.10;99.90
64620;DHT22;51029;51.058;13.826;2022-12-18T15:38:26;-4.10;99.90
64620;DHT22;51029;51.058;13.826;2022-12-18T15:40:53;-4.10;99.90
64620;DHT22;51029;51.058;13.826;2022-12-18T15:43:23;-4.10;99.90
64620;DHT22;51029;51.058;13.826;2022-12-18T15:48:27;-4.20;99.90
64620;DHT22;51029;51.058;13.826;2022-12-18T15:50:55;-4.20;99.90
64620;DHT22;51029;51.058;13.826;2022-12-18T15:53:23;-4.30;99.90
64620;DHT22;51029;51.058;13.826;2022-12-18T15:55:49;-4.20;99.90
64620;DHT22;51029;51.058;13.826;2022-12-18T15:58:33;-4.20;99.90
64620;DHT22;51029;51.058;13.826;2022-12-18T16:00:59;-4.20;99.90
64620;DHT22;51029;51.058;13.826;2022-12-18T16:03:26;-4.20;99.90
64620;DHT22;51029;51.058;13.826;2022-12-18T16:05:52;-4.20;99.90
64620;DHT22;51029;51.058;13.826;2022-12-18T16:08:17;-4.20;99.90
64620;DHT22;51029;51.058;13.826;2022-12-18T16:10:43;-4.20;99.90
64620;DHT22;51029;51.058;13.826;2022-12-18T16:13:16;-4.20;99.90
64620;DHT22;51029;51.058;13.826;2022-12-18T16:15:44;-4.20;99.90
64620;DHT22;51029;51.058;13.826;2022-12-18T16:18:09;-4.20;99.90
64620;DHT22;51029;51.058;13.826;2022-12-18T16:20:35;-4.10;99.90
64620;DHT22;51029;51.058;13.826;2022-12-18T16:23:01;-4.20;99.90
64620;DHT22;51029;51.058;13.826;2022-12-18T16:25:27;-4.10;99.90
64620;DHT22;51029;51.058;13.826;2022-12-18T16:27:54;-4.10;99.90
64620;DHT22;51029;51.058;13.826;2022-12-18T16:30:25;-4.20;99.90
64620;DHT22;51029;51.058;13.826;2022-12-18T16:32:53;-4.20;99.90
64620;DHT22;51029;51.058;13.826;2022-12-18T16:35:19;-4.20;99.90
64620;DHT22;51029;51.058;13.826;2022-12-18T16:37:45;-4.10;99.90
64620;DHT22;51029;51.058;13.826;2022-12-18T16:40:13;-4.10;99.90
64620;DHT22;51029;51.058;13.826;2022-12-18T16:42:40;-4.00;99.90
64620;DHT22;51029;51.058;13.826;2022-12-18T16:45:09;-4.00;99.90
64620;DHT22;51029;51.058;13.826;2022-12-18T16:47:35;-4.00;99.90
64620;DHT22;51029;51.058;13.826;2022-12-18T16:50:01;-4.00;99.90
64620;DHT22;51029;51.058;13.826;2022-12-18T16:52:27;-4.00;99.90